createdAt,value
2019-05-10T00:00:51.283Z,10.11
2019-05-10T00:03:38.316Z,10.10
2019-05-10T00:06:25.212Z,10.09
2019-05-10T00:08:53.898Z,10.04
2019-05-10T00:11:59.068Z,9.99
2019-05-10T00:14:59.482Z,9.95
2019-05-10T00:17:29.126Z,9.93
2019-05-10T00:19:58.731Z,9.95
2019-05-10T00:22:28.272Z,9.93
2019-05-10T00:25:04.443Z,9.91
2019-05-10T00:27:29.057Z,9.88
2019-05-10T00:29:58.444Z,9.76
2019-05-10T00:32:28.003Z,9.65
2019-05-10T00:34:57.585Z,9.59
2019-05-10T00:37:27.074Z,9.55
2019-05-10T00:39:57.088Z,9.49
2019-05-10T00:42:26.490Z,9.47
2019-05-10T00:44:56.091Z,9.43
2019-05-10T00:47:25.542Z,9.40
2019-05-10T00:49:55.577Z,9.38
2019-05-10T00:52:25.011Z,9.36
2019-05-10T00:54:54.672Z,9.29
2019-05-10T00:57:24.190Z,9.25
2019-05-10T00:59:53.693Z,9.21
2019-05-10T01:02:23.128Z,9.21
2019-05-10T01:04:52.526Z,9.19
2019-05-10T01:07:21.927Z,9.20
2019-05-10T01:09:51.484Z,9.18
2019-05-10T01:12:26.264Z,9.19
2019-05-10T01:14:55.821Z,9.21
2019-05-10T01:17:27.457Z,9.22
2019-05-10T01:19:57.985Z,9.25
2019-05-10T01:22:27.584Z,9.23
2019-05-10T01:24:57.029Z,9.22
2019-05-10T01:27:27.572Z,9.23
2019-05-10T01:29:57.760Z,9.23
2019-05-10T01:32:27.109Z,9.23
2019-05-10T01:34:56.773Z,9.25
2019-05-10T01:37:26.344Z,9.27
2019-05-10T01:39:59.272Z,9.28
2019-05-10T01:42:28.758Z,9.28
2019-05-10T01:45:00.062Z,9.26
2019-05-10T01:47:31.377Z,9.27
2019-05-10T01:50:02.821Z,9.28
2019-05-10T01:52:32.219Z,9.28
2019-05-10T01:55:02.151Z,9.30
2019-05-10T01:57:31.837Z,9.29
2019-05-10T02:00:01.491Z,9.30
2019-05-10T02:02:30.994Z,9.33
2019-05-10T02:05:01.306Z,9.35
2019-05-10T02:07:30.769Z,9.36
2019-05-10T02:10:00.490Z,9.38
2019-05-10T02:12:30.293Z,9.40
2019-05-10T02:15:02.385Z,9.38
2019-05-10T02:17:31.865Z,9.38
2019-05-10T02:20:12.691Z,9.41
2019-05-10T02:22:42.043Z,9.44
2019-05-10T02:25:11.659Z,9.44
2019-05-10T02:27:41.805Z,9.45
2019-05-10T02:30:11.693Z,9.42
2019-05-10T02:32:41.063Z,9.40
2019-05-10T02:35:10.535Z,9.41
2019-05-10T02:37:39.926Z,9.41
2019-05-10T02:40:12.501Z,9.40
2019-05-10T02:42:42.104Z,9.43
2019-05-10T02:45:11.676Z,9.44
2019-05-10T02:47:41.436Z,9.44
2019-05-10T02:50:11.958Z,9.45
2019-05-10T02:52:41.312Z,9.44
2019-05-10T02:55:10.657Z,9.40
2019-05-10T02:57:40.087Z,9.36
2019-05-10T03:00:09.899Z,9.31
2019-05-10T03:02:40.199Z,9.30
2019-05-10T03:05:10.204Z,9.31
2019-05-10T03:07:39.792Z,9.29
2019-05-10T03:10:12.644Z,9.26
2019-05-10T03:12:42.519Z,9.24
2019-05-10T03:15:12.967Z,9.23
2019-05-10T03:17:42.730Z,9.24
2019-05-10T03:20:12.994Z,9.23
2019-05-10T03:22:43.863Z,9.22
2019-05-10T03:25:14.287Z,9.21
2019-05-10T03:27:44.019Z,9.24
2019-05-10T03:30:13.505Z,9.24
2019-05-10T03:32:42.889Z,9.25
2019-05-10T03:35:12.496Z,9.28
2019-05-10T03:37:42.001Z,9.25
2019-05-10T03:40:11.608Z,9.25
2019-05-10T03:42:41.098Z,9.23
2019-05-10T03:45:11.287Z,9.23
2019-05-10T03:47:40.757Z,9.23
2019-05-10T03:50:10.494Z,9.23
2019-05-10T03:52:41.112Z,9.29
2019-05-10T03:55:10.659Z,9.30
2019-05-10T03:57:40.060Z,9.34
2019-05-10T04:00:09.820Z,9.39
2019-05-10T04:02:39.203Z,9.43
2019-05-10T04:05:11.594Z,9.44
2019-05-10T04:07:41.010Z,9.47
2019-05-10T04:10:10.684Z,9.50
2019-05-10T04:12:40.070Z,9.50
2019-05-10T04:15:09.943Z,9.51
2019-05-10T04:17:39.384Z,9.53
2019-05-10T04:20:09.109Z,9.47
2019-05-10T04:22:38.527Z,9.46
2019-05-10T04:25:08.499Z,9.45
2019-05-10T04:27:37.918Z,9.44
2019-05-10T04:30:07.717Z,9.47
2019-05-10T04:32:37.133Z,9.48
2019-05-10T04:35:06.629Z,9.50
2019-05-10T04:37:36.096Z,9.49
2019-05-10T04:40:05.520Z,9.48
2019-05-10T04:42:34.940Z,9.48
2019-05-10T04:45:04.420Z,9.51
2019-05-10T04:47:34.016Z,9.56
2019-05-10T04:50:04.287Z,9.63
2019-05-10T04:52:33.716Z,9.69
2019-05-10T04:55:03.069Z,9.71
2019-05-10T04:57:49.184Z,9.75
2019-05-10T05:00:04.008Z,9.76
2019-05-10T05:02:33.363Z,9.77
2019-05-10T05:05:03.050Z,9.80
2019-05-10T05:07:32.388Z,9.86
2019-05-10T05:10:04.039Z,9.88
2019-05-10T05:12:33.507Z,9.85
2019-05-10T05:15:02.855Z,9.85
2019-05-10T05:17:32.245Z,9.86
2019-05-10T05:20:02.051Z,9.91
2019-05-10T05:22:31.402Z,9.92
2019-05-10T05:25:01.927Z,9.90
2019-05-10T05:27:32.287Z,9.93
2019-05-10T05:30:03.214Z,10.03
2019-05-10T05:32:32.569Z,10.08
2019-05-10T05:35:02.078Z,10.18
2019-05-10T05:37:31.824Z,10.23
2019-05-10T05:40:01.267Z,10.34
2019-05-10T05:42:30.895Z,10.40
2019-05-10T05:45:00.323Z,10.46
2019-05-10T05:47:37.474Z,10.50
2019-05-10T05:50:06.024Z,10.54
2019-05-10T05:52:35.425Z,10.53
2019-05-10T05:55:05.096Z,10.56
2019-05-10T05:57:59.278Z,10.57
2019-05-10T06:00:28.771Z,10.60
2019-05-10T06:02:58.166Z,10.66
2019-05-10T06:05:34.161Z,10.74
2019-05-10T06:07:58.745Z,10.77
2019-05-10T06:10:28.205Z,10.78
2019-05-10T06:12:57.657Z,10.80
2019-05-10T06:15:29.282Z,10.82
2019-05-10T06:18:03.532Z,10.90
2019-05-10T06:20:29.530Z,10.96
2019-05-10T06:23:06.334Z,10.99
2019-05-10T06:25:39.213Z,11.03
2019-05-10T06:28:03.038Z,11.12
2019-05-10T06:30:32.417Z,11.20
2019-05-10T06:33:11.887Z,11.31
2019-05-10T06:35:33.477Z,11.38
2019-05-10T06:38:02.869Z,11.48
2019-05-10T06:40:39.298Z,11.53
2019-05-10T06:43:07.094Z,11.56
2019-05-10T06:45:34.807Z,11.54
2019-05-10T06:48:04.191Z,11.51
2019-05-10T06:50:33.784Z,11.51
2019-05-10T06:53:07.722Z,11.47
2019-05-10T06:55:35.915Z,11.48
2019-05-10T06:58:06.806Z,11.54
2019-05-10T07:00:37.935Z,11.55
2019-05-10T07:03:07.362Z,11.56
2019-05-10T07:05:36.810Z,11.53
2019-05-10T07:08:14.217Z,11.53
2019-05-10T07:10:37.674Z,11.55
2019-05-10T07:13:07.139Z,11.56
2019-05-10T07:15:42.062Z,11.49
2019-05-10T07:18:07.903Z,11.42
2019-05-10T07:20:42.793Z,11.40
2019-05-10T07:23:10.346Z,11.38
2019-05-10T07:25:43.635Z,11.30
2019-05-10T07:28:15.632Z,11.29
2019-05-10T07:30:42.656Z,11.28
2019-05-10T07:33:12.186Z,11.31
2019-05-10T07:35:41.658Z,11.24
2019-05-10T07:38:11.022Z,11.24
2019-05-10T07:40:40.444Z,11.26
2019-05-10T07:43:10.002Z,11.30
2019-05-10T07:45:39.425Z,11.35
2019-05-10T07:48:10.405Z,11.42
2019-05-10T07:50:42.382Z,11.48
2019-05-10T07:53:16.241Z,11.56
2019-05-10T07:55:42.934Z,11.59
2019-05-10T07:58:12.391Z,11.68
2019-05-10T08:00:47.928Z,11.80
2019-05-10T08:03:23.529Z,11.83
2019-05-10T08:05:55.049Z,11.94
2019-05-10T08:08:19.864Z,12.06
2019-05-10T08:10:49.270Z,12.13
2019-05-10T08:13:21.149Z,12.20
2019-05-10T08:15:59.444Z,12.26
2019-05-10T08:18:29.345Z,12.41
2019-05-10T08:21:17.460Z,12.58
2019-05-10T08:23:33.362Z,12.70
2019-05-10T08:26:04.428Z,12.83
2019-05-10T08:28:37.902Z,12.97
2019-05-10T08:31:13.248Z,13.08
2019-05-10T08:33:44.207Z,13.09
2019-05-10T08:36:13.988Z,13.14
2019-05-10T08:38:46.730Z,13.18
2019-05-10T08:41:18.151Z,13.19
2019-05-10T08:43:46.059Z,13.23
2019-05-10T08:46:19.417Z,13.23
2019-05-10T08:48:50.544Z,13.20
2019-05-10T08:51:18.055Z,13.17
2019-05-10T08:53:55.193Z,13.08
2019-05-10T08:56:21.719Z,13.00
2019-05-10T08:58:50.237Z,12.95
2019-05-10T09:01:27.608Z,12.90
2019-05-10T09:03:59.404Z,12.85
2019-05-10T09:06:23.805Z,12.84
2019-05-10T09:09:01.587Z,12.84
2019-05-10T09:11:24.326Z,12.85
2019-05-10T09:13:57.494Z,12.85
2019-05-10T09:16:29.105Z,12.91
2019-05-10T09:18:58.345Z,13.00
2019-05-10T09:21:27.906Z,13.09
2019-05-10T09:24:01.366Z,13.11
2019-05-10T09:26:32.262Z,13.12
2019-05-10T09:29:02.765Z,13.20
2019-05-10T09:31:32.736Z,13.30
2019-05-10T09:34:05.565Z,13.36
2019-05-10T09:36:36.309Z,13.45
2019-05-10T09:39:09.258Z,13.55
2019-05-10T09:41:38.582Z,13.67
2019-05-10T09:44:08.222Z,13.81
2019-05-10T09:46:37.696Z,13.80
2019-05-10T09:49:15.820Z,13.93
2019-05-10T09:51:42.243Z,14.21
2019-05-10T09:54:12.817Z,14.48
2019-05-10T09:56:44.974Z,14.70
2019-05-10T09:59:13.321Z,14.85
2019-05-10T10:01:42.724Z,14.96
2019-05-10T10:04:12.675Z,15.03
2019-05-10T10:06:47.163Z,15.10
2019-05-10T10:09:13.436Z,15.16
2019-05-10T10:11:48.539Z,15.24
2019-05-10T10:14:14.095Z,14.90
2019-05-10T10:16:48.897Z,14.60
2019-05-10T10:19:17.288Z,14.34
2019-05-10T10:21:47.605Z,14.20
2019-05-10T10:24:20.064Z,14.06
2019-05-10T10:26:48.333Z,13.99
2019-05-10T10:29:17.734Z,14.06
2019-05-10T10:31:55.245Z,14.04
2019-05-10T10:34:18.287Z,14.11
2019-05-10T10:36:47.698Z,14.17
2019-05-10T10:39:17.309Z,14.11
2019-05-10T10:41:51.712Z,14.19
2019-05-10T10:44:19.486Z,14.20
2019-05-10T10:46:49.030Z,14.51
2019-05-10T10:49:23.157Z,14.99
2019-05-10T10:51:50.404Z,15.03
2019-05-10T10:54:22.485Z,15.01
2019-05-10T10:56:51.276Z,15.12
2019-05-10T10:59:20.625Z,15.24
2019-05-10T11:02:04.695Z,15.40
2019-05-10T11:04:21.217Z,15.78
2019-05-10T11:06:50.601Z,16.23
2019-05-10T11:09:20.704Z,16.39
2019-05-10T11:11:51.585Z,16.78
2019-05-10T11:14:21.122Z,17.03
2019-05-10T11:16:55.434Z,17.27
2019-05-10T11:19:22.038Z,17.57
2019-05-10T11:22:09.656Z,17.86
2019-05-10T11:24:35.071Z,17.94
2019-05-10T11:27:07.196Z,17.84
2019-05-10T11:29:35.604Z,17.74
2019-05-10T11:32:14.639Z,17.73
2019-05-10T11:34:37.992Z,17.70
2019-05-10T11:37:07.219Z,17.56
2019-05-10T11:39:42.042Z,17.64
2019-05-10T11:42:07.907Z,17.93
2019-05-10T11:44:41.511Z,18.13
2019-05-10T11:47:22.481Z,18.44
2019-05-10T11:49:40.684Z,18.56
2019-05-10T11:52:13.109Z,18.81
2019-05-10T11:54:42.802Z,18.98
2019-05-10T11:59:03.771Z,19.04
2019-05-10T11:59:43.376Z,18.82
2019-05-10T12:02:33.841Z,18.66
2019-05-10T12:04:44.422Z,18.51
2019-05-10T12:07:13.909Z,18.21
2019-05-10T12:09:43.477Z,18.06
2019-05-10T12:12:12.941Z,17.86
2019-05-10T12:14:46.187Z,17.69
2019-05-10T12:17:14.468Z,17.84
2019-05-10T12:19:48.795Z,17.92
2019-05-10T12:22:16.070Z,18.03
2019-05-10T12:25:00.352Z,18.11
2019-05-10T12:27:25.971Z,18.13
2019-05-10T12:29:55.566Z,18.17
2019-05-10T12:32:21.391Z,18.31
2019-05-10T12:34:56.315Z,18.31
2019-05-10T12:37:22.015Z,18.21
2019-05-10T12:39:53.183Z,18.23
2019-05-10T12:42:22.831Z,18.20
2019-05-10T12:44:55.850Z,18.28
2019-05-10T12:47:23.985Z,18.35
2019-05-10T12:50:01.815Z,18.24
2019-05-10T12:52:28.521Z,18.09
2019-05-10T12:54:58.450Z,17.96
2019-05-10T12:57:27.838Z,17.92
2019-05-10T12:59:57.417Z,18.04
2019-05-10T13:02:27.237Z,17.87
2019-05-10T13:04:58.820Z,17.70
2019-05-10T13:07:30.769Z,17.70
2019-05-10T13:10:03.930Z,17.53
2019-05-10T13:12:31.367Z,17.46
2019-05-10T13:15:00.869Z,17.56
2019-05-10T13:17:30.392Z,17.54
2019-05-10T13:20:00.721Z,17.68
2019-05-10T13:22:37.174Z,17.77
2019-05-10T13:25:04.641Z,17.75
2019-05-10T13:27:36.437Z,17.83
2019-05-10T13:30:08.818Z,17.71
2019-05-10T13:32:38.495Z,17.68
2019-05-10T13:35:08.476Z,17.69
2019-05-10T13:37:38.265Z,17.68
2019-05-10T13:40:08.550Z,17.59
2019-05-10T13:42:52.636Z,17.57
2019-05-10T13:45:24.089Z,17.66
2019-05-10T13:47:53.304Z,17.82
2019-05-10T13:50:23.374Z,17.90
2019-05-10T13:52:53.549Z,17.89
2019-05-10T13:55:24.351Z,17.85
2019-05-10T13:57:56.992Z,18.02
2019-05-10T14:00:33.464Z,18.34
2019-05-10T14:02:58.192Z,18.41
2019-05-10T14:05:30.112Z,18.72
2019-05-10T14:08:00.741Z,19.04
2019-05-10T14:10:30.285Z,19.21
2019-05-10T14:13:02.356Z,19.37
2019-05-10T14:15:33.721Z,19.46
2019-05-10T14:18:03.136Z,19.43
2019-05-10T14:20:32.603Z,19.46
2019-05-10T14:23:02.126Z,19.51
2019-05-10T14:25:36.230Z,19.60
2019-05-10T14:28:02.788Z,19.75
2019-05-10T14:30:32.464Z,19.74
2019-05-10T14:33:02.020Z,19.70
2019-05-10T14:35:31.423Z,19.71
2019-05-10T14:38:08.447Z,19.61
2019-05-10T14:40:32.456Z,19.53
2019-05-10T14:43:04.447Z,19.31
2019-05-10T14:45:33.821Z,19.21
2019-05-10T14:48:03.175Z,18.93
2019-05-10T14:50:32.595Z,18.71
2019-05-10T14:53:02.272Z,18.69
2019-05-10T14:55:34.784Z,18.69
2019-05-10T14:58:03.464Z,18.69
2019-05-10T15:00:35.874Z,18.69
2019-05-10T15:03:05.359Z,18.59
2019-05-10T15:05:36.529Z,18.42
2019-05-10T15:08:06.096Z,18.31
2019-05-10T15:10:39.549Z,18.12
2019-05-10T15:13:06.667Z,18.00
2019-05-10T15:15:37.331Z,17.91
2019-05-10T15:18:07.003Z,18.01
2019-05-10T15:20:36.459Z,18.13
2019-05-10T15:23:05.845Z,18.22
2019-05-10T15:25:35.247Z,18.11
2019-05-10T15:28:04.693Z,18.07
2019-05-10T15:30:39.237Z,18.57
2019-05-10T15:33:08.196Z,19.11
2019-05-10T15:35:37.880Z,19.65
2019-05-10T15:38:07.277Z,19.64
2019-05-10T15:40:38.813Z,20.09
2019-05-10T15:43:10.429Z,20.05
2019-05-10T15:45:39.222Z,20.21
2019-05-10T15:48:08.677Z,20.13
2019-05-10T15:50:40.714Z,20.56
2019-05-10T15:53:09.279Z,21.05
2019-05-10T15:55:38.938Z,21.53
2019-05-10T15:58:08.671Z,22.10
2019-05-10T16:00:41.222Z,22.78
2019-05-10T16:03:09.242Z,23.17
2019-05-10T16:05:43.634Z,23.47
2019-05-10T16:08:13.602Z,23.79
2019-05-10T16:10:42.928Z,24.28
2019-05-10T16:13:14.553Z,24.69
2019-05-10T16:15:43.583Z,24.64
2019-05-10T16:18:13.083Z,24.79
2019-05-10T16:20:42.500Z,24.62
2019-05-10T16:23:11.862Z,24.36
2019-05-10T16:25:47.659Z,23.25
2019-05-10T16:28:18.850Z,22.31
2019-05-10T16:30:46.919Z,21.34
2019-05-10T16:33:15.778Z,20.70
2019-05-10T16:35:49.507Z,20.41
2019-05-10T16:38:16.697Z,20.02
2019-05-10T16:40:57.486Z,20.50
2019-05-10T16:43:23.954Z,20.99
2019-05-10T16:45:48.361Z,20.89
2019-05-10T16:48:38.858Z,20.44
2019-05-10T16:51:09.964Z,20.17
2019-05-10T16:53:43.637Z,20.82
2019-05-10T16:56:13.409Z,20.88
2019-05-10T16:58:41.949Z,20.57
2019-05-10T17:01:11.793Z,20.15
2019-05-10T17:03:41.243Z,19.73
2019-05-10T17:06:10.646Z,19.39
2019-05-10T17:08:40.059Z,18.97
2019-05-10T17:11:11.767Z,18.61
2019-05-10T17:13:41.609Z,18.32
2019-05-10T17:16:16.972Z,17.99
2019-05-10T17:18:43.197Z,17.60
2019-05-10T17:21:12.589Z,17.35
2019-05-10T17:23:46.968Z,17.17
2019-05-10T17:26:13.237Z,16.95
2019-05-10T17:28:42.661Z,16.63
2019-05-10T17:31:12.004Z,16.43
2019-05-10T17:33:42.643Z,16.25
2019-05-10T17:36:14.559Z,16.10
2019-05-10T17:38:47.173Z,16.01
2019-05-10T17:41:19.120Z,15.94
2019-05-10T17:43:45.910Z,15.72
2019-05-10T17:46:18.767Z,15.28
2019-05-10T17:48:47.471Z,14.83
2019-05-10T17:51:17.703Z,14.40
2019-05-10T17:53:47.076Z,13.95
2019-05-10T17:56:16.837Z,13.57
2019-05-10T17:58:46.459Z,13.28
2019-05-10T18:01:15.851Z,13.12
2019-05-10T18:03:46.265Z,13.03
2019-05-10T18:06:23.600Z,12.95
2019-05-10T18:08:46.757Z,12.89
2019-05-10T18:11:16.177Z,12.83
2019-05-10T18:13:45.536Z,12.77
2019-05-10T18:16:14.976Z,12.75
2019-05-10T18:18:47.064Z,12.72
2019-05-10T18:21:21.032Z,12.75
2019-05-10T18:23:46.660Z,12.74
2019-05-10T18:26:16.070Z,12.74
2019-05-10T18:28:45.437Z,12.77
2019-05-10T18:31:14.841Z,12.82
2019-05-10T18:33:53.435Z,12.85
2019-05-10T18:36:16.480Z,12.85
2019-05-10T18:38:45.987Z,12.85
2019-05-10T18:41:15.376Z,12.87
2019-05-10T18:43:44.871Z,12.83
2019-05-10T18:46:14.252Z,12.80
2019-05-10T18:48:43.664Z,12.79
2019-05-10T18:51:18.099Z,12.79
2019-05-10T18:53:44.137Z,12.80
2019-05-10T18:56:13.587Z,12.81
2019-05-10T18:58:43.295Z,12.81
2019-05-10T19:01:12.663Z,12.77
2019-05-10T19:03:42.072Z,12.72
2019-05-10T19:06:13.270Z,12.67
2019-05-10T19:08:44.159Z,12.65
2019-05-10T19:11:14.127Z,12.65
2019-05-10T19:13:47.825Z,12.61
2019-05-10T19:16:14.867Z,12.56
2019-05-10T19:18:44.625Z,12.54
2019-05-10T19:21:14.091Z,12.53
2019-05-10T19:23:43.465Z,12.52
2019-05-10T19:26:12.867Z,12.53
2019-05-10T19:28:42.234Z,12.54
2019-05-10T19:31:11.588Z,12.55
2019-05-10T19:33:40.976Z,12.54
2019-05-10T19:36:13.060Z,12.54
2019-05-10T19:38:41.501Z,12.52
2019-05-10T19:41:11.110Z,12.47
2019-05-10T19:43:40.571Z,12.45
2019-05-10T19:46:10.054Z,12.40
2019-05-10T19:48:39.487Z,12.37
2019-05-10T19:51:10.030Z,12.35
2019-05-10T19:53:42.230Z,12.35
2019-05-10T19:56:11.935Z,12.34
2019-05-10T19:58:41.506Z,12.33
2019-05-10T20:01:11.031Z,12.33
2019-05-10T20:03:40.715Z,12.34
2019-05-10T20:06:10.170Z,12.35
2019-05-10T20:08:39.578Z,12.37
2019-05-10T20:11:09.384Z,12.40
2019-05-10T20:13:38.757Z,12.42
2019-05-10T20:16:08.138Z,12.44
2019-05-10T20:18:37.542Z,12.45
2019-05-10T20:21:06.888Z,12.47
2019-05-10T20:23:36.304Z,12.49
2019-05-10T20:26:05.715Z,12.51
2019-05-10T20:28:35.091Z,12.51
2019-05-10T20:31:04.466Z,12.49
2019-05-10T20:33:34.274Z,12.47
2019-05-10T20:36:03.652Z,12.46
2019-05-10T20:38:33.145Z,12.46
2019-05-10T20:41:02.525Z,12.47
2019-05-10T20:43:32.302Z,12.46
2019-05-10T20:46:01.738Z,12.48
2019-05-10T20:48:31.333Z,12.47
2019-05-10T20:51:02.724Z,12.47
2019-05-10T20:53:32.195Z,12.47
2019-05-10T20:56:02.016Z,12.43
2019-05-10T20:58:34.572Z,12.41
2019-05-10T21:01:04.330Z,12.41
2019-05-10T21:03:34.353Z,12.39
2019-05-10T21:06:03.716Z,12.38
2019-05-10T21:08:33.231Z,12.38
2019-05-10T21:11:04.013Z,12.38
2019-05-10T21:13:50.290Z,12.37
2019-05-10T21:16:19.765Z,12.35
2019-05-10T21:18:49.285Z,12.30
2019-05-10T21:21:18.657Z,12.26
2019-05-10T21:23:48.604Z,12.23
2019-05-10T21:26:17.960Z,12.22
2019-05-10T21:28:47.309Z,12.20
2019-05-10T21:31:16.772Z,12.18
2019-05-10T21:33:46.540Z,12.13
2019-05-10T21:36:15.922Z,12.09
2019-05-10T21:38:50.508Z,12.03
2019-05-10T21:41:20.891Z,12.00
2019-05-10T21:43:50.486Z,11.94
2019-05-10T21:46:19.873Z,11.87
2019-05-10T21:48:49.286Z,11.79
2019-05-10T21:51:18.655Z,11.72
2019-05-10T21:53:48.567Z,11.66
2019-05-10T21:56:17.919Z,11.67
2019-05-10T21:58:47.602Z,11.65
2019-05-10T22:01:17.730Z,11.64
2019-05-10T22:03:47.512Z,11.64
2019-05-10T22:06:17.063Z,11.60
2019-05-10T22:08:49.403Z,11.54
2019-05-10T22:11:18.075Z,11.49
2019-05-10T22:13:47.877Z,11.43
2019-05-10T22:16:17.252Z,11.40
2019-05-10T22:18:48.282Z,11.37
2019-05-10T22:21:17.683Z,11.34
2019-05-10T22:23:47.578Z,11.33
2019-05-10T22:26:16.942Z,11.32
2019-05-10T22:28:46.391Z,11.32
2019-05-10T22:31:15.805Z,11.32
2019-05-10T22:33:45.212Z,11.33
2019-05-10T22:36:14.573Z,11.35
2019-05-10T22:38:44.039Z,11.35
2019-05-10T22:41:13.440Z,11.36
2019-05-10T22:43:42.856Z,11.35
2019-05-10T22:46:12.399Z,11.37
2019-05-10T22:48:41.783Z,11.36
2019-05-10T22:51:11.162Z,11.35
2019-05-10T22:53:40.565Z,11.36
2019-05-10T22:56:09.960Z,11.38
2019-05-10T22:58:39.310Z,11.38
2019-05-10T23:01:08.805Z,11.36
2019-05-10T23:03:39.597Z,11.37
2019-05-10T23:06:08.996Z,11.37
2019-05-10T23:08:38.371Z,11.36
2019-05-10T23:11:08.067Z,11.33
2019-05-10T23:13:37.428Z,11.34
2019-05-10T23:16:06.836Z,11.35
2019-05-10T23:18:36.262Z,11.38
2019-05-10T23:21:05.644Z,11.41
2019-05-10T23:23:35.041Z,11.45
2019-05-10T23:26:04.448Z,11.43
2019-05-10T23:28:33.828Z,11.47
2019-05-10T23:31:03.339Z,11.46
2019-05-10T23:33:32.780Z,11.48
2019-05-10T23:36:02.311Z,11.47
2019-05-10T23:38:31.690Z,11.48
2019-05-10T23:41:01.183Z,11.52
2019-05-10T23:43:30.552Z,11.56
2019-05-10T23:46:00.060Z,11.58
2019-05-10T23:48:29.419Z,11.60
2019-05-10T23:50:59.041Z,11.62
2019-05-10T23:53:31.124Z,11.62
2019-05-10T23:56:00.535Z,11.63
2019-05-10T23:58:33.186Z,11.63
